Drewsville, NH (03604)

9:43 PM EDT on August 27, 2016 (GMT -0400)
Charlestown-Langdon | | Change Station

Elev 505 ft 43.17 °N, 72.41 °W | Updated 4 minutes ago

Mostly Cloudy
Mostly Cloudy
66.6 °F
Feels Like 66.6 °F
N
0.0
Wind Variable Wind from SE

Today
High -- | Low -- °F
--% Chance of Precip.
Yesterday
High -- | Low -- °F
Precip. -- in
Pressure 30.24 in
Visibility 10.0 miles
Clouds Mostly Cloudy 6000 ft
Dew Point 66 °F
Humidity 99%
Rainfall 0.00 in
Snow Depth Not available.
6:08 AM 7:32 PM
Waning Crescent, 20% visible
METAR KVSF 280054Z AUTO 00000KT 10SM BKN060 20/18 A3023 RMK AO2 SLP238 T02000178 TSNO
Pressure 30.24 in
Visibility 10.0 miles
Clouds Mostly Cloudy 6000 ft
Dew Point 66 °F
Humidity 99%
Rainfall 0.00 in
Snow Depth Not available.
6:08 AM 7:32 PM
Waning Crescent, 20% visible
METAR KVSF 280054Z AUTO 00000KT 10SM BKN060 20/18 A3023 RMK AO2 SLP238 T02000178 TSNO

10-Day Weather Forecast

Almanac

Astronomy

Aug. 27, 2016 Rise Set
Actual Time
Civil Twilight
Nautical Twilight
Astronomical Twilight
Moon
Length of Visible Light
Length of Day
Tomorrow will be .
, % of the Moon is Illuminated

Today's Extremes

State Highs State Lows

Community

WunderPhotos

Upload Photos

1,935,489 photos uploaded!

WunderBlog® & News

Nearby

Air Quality

  Air Quality AQ Index Pollutant
Not available.

Snow Depth

Station Depth Elevation

Earthquake Activity

City Distance Mag. Time & Date
Minimum magnitude displayed is 2.5.

Coastal Water Temperatures

Place Temperature

Stations

Nearby Weather Stations

Station Location Temp. Windchill Dew Point Humidity Wind Precip. Elev Updated Type
                   

Watches & Warnings

There are currently no watches in effect.